Greater Binghamton,Edwin A Link field Binghamton US
ICAO: KBGM
IATA: BGM
Category: Medium
Scheduled Services: Yes

Elevation: 1636 ft
TransAlt. 18000 ft.

Airport Communications:
APP/DEP:118.6
ATIS:128.15
CLNC DEL:125.05
CTAF:119.3
GND:121.9
BUFFALO RDO:112.2
TWR:119.3
UNICOM:122.95

KBGM Zoom In..

Runways:

(A) RW 10 length 5001 ft width 150 ft
---- / hdg 98

(B) RW 16 length 7304 ft width 150 ft
ILS 110.30 / hdg 160

(C) RW 28 length 5001 ft width 150 ft
---- / hdg 278

(D) RW 34 length 7304 ft width 150 ft
ILS 110.30 / hdg 340

Location; KBGM
Day. 22 / Time. 23.53 Zulu
* Altimeter: 29.95
* Temperature: 05° c. 41°f.
* Wind from: 150° Speed 12 kn.
Dewpoint: 04° c.
Visibility: 5 Statute Miles.
Clouds: Overcast 11000 ft.
Conditions: Mist.

KBGM 222353Z 15012KT 5SM BR OVC110 05/04 A2995 RMK AO2 SLP152 60010 T00500044 10061 20039 58012


Wind From 150°
Speed 12 kn.

YouTube Music Video
 
jpsmedia.com for Web Design  worldairports.se 2018   terms of use